sensor_id;sensor_type;location;lat;lon;timestamp;P1;durP1;ratioP1;P2;durP2;ratioP2
3801;SDS011;1916;51.798;12.246;2023-06-10T00:01:16;7.63;;;3.90;;
3801;SDS011;1916;51.798;12.246;2023-06-10T00:03:18;6.10;;;4.03;;
3801;SDS011;1916;51.798;12.246;2023-06-10T00:05:21;8.43;;;4.27;;
3801;SDS011;1916;51.798;12.246;2023-06-10T00:07:23;6.07;;;4.00;;
3801;SDS011;1916;51.798;12.246;2023-06-10T00:09:25;8.67;;;4.43;;
3801;SDS011;1916;51.798;12.246;2023-06-10T00:11:28;6.60;;;4.90;;
3801;SDS011;1916;51.798;12.246;2023-06-10T00:13:30;6.40;;;4.20;;
3801;SDS011;1916;51.798;12.246;2023-06-10T00:15:32;7.20;;;4.70;;
3801;SDS011;1916;51.798;12.246;2023-06-10T00:17:34;17.23;;;5.93;;
3801;SDS011;1916;51.798;12.246;2023-06-10T00:19:41;9.53;;;4.53;;
3801;SDS011;1916;51.798;12.246;2023-06-10T00:21:43;8.70;;;4.53;;
3801;SDS011;1916;51.798;12.246;2023-06-10T00:23:46;10.53;;;5.27;;
3801;SDS011;1916;51.798;12.246;2023-06-10T00:25:48;6.10;;;4.23;;
3801;SDS011;1916;51.798;12.246;2023-06-10T00:27:50;8.30;;;4.73;;
3801;SDS011;1916;51.798;12.246;2023-06-10T00:29:52;8.33;;;4.70;;
3801;SDS011;1916;51.798;12.246;2023-06-10T00:31:54;10.73;;;5.50;;
3801;SDS011;1916;51.798;12.246;2023-06-10T00:33:59;6.33;;;4.40;;
3801;SDS011;1916;51.798;12.246;2023-06-10T00:36:01;7.57;;;4.50;;
3801;SDS011;1916;51.798;12.246;2023-06-10T00:38:03;8.30;;;4.90;;
3801;SDS011;1916;51.798;12.246;2023-06-10T00:40:05;9.50;;;4.67;;
3801;SDS011;1916;51.798;12.246;2023-06-10T00:42:10;8.90;;;4.60;;
3801;SDS011;1916;51.798;12.246;2023-06-10T00:44:12;7.70;;;5.50;;
3801;SDS011;1916;51.798;12.246;2023-06-10T00:46:15;12.50;;;4.87;;
3801;SDS011;1916;51.798;12.246;2023-06-10T00:48:18;9.87;;;5.80;;
3801;SDS011;1916;51.798;12.246;2023-06-10T00:50:21;7.50;;;5.03;;
3801;SDS011;1916;51.798;12.246;2023-06-10T00:52:24;11.10;;;5.30;;
3801;SDS011;1916;51.798;12.246;2023-06-10T00:54:29;7.60;;;4.60;;
3801;SDS011;1916;51.798;12.246;2023-06-10T00:56:32;9.03;;;5.40;;
3801;SDS011;1916;51.798;12.246;2023-06-10T00:58:36;7.73;;;4.80;;
3801;SDS011;1916;51.798;12.246;2023-06-10T01:00:39;9.07;;;4.57;;
3801;SDS011;1916;51.798;12.246;2023-06-10T01:02:41;8.33;;;5.10;;
3801;SDS011;1916;51.798;12.246;2023-06-10T01:04:43;7.50;;;5.47;;
3801;SDS011;1916;51.798;12.246;2023-06-10T01:09:14;12.43;;;5.57;;
3801;SDS011;1916;51.798;12.246;2023-06-10T01:11:23;9.63;;;5.57;;
3801;SDS011;1916;51.798;12.246;2023-06-10T01:13:29;9.67;;;5.60;;
3801;SDS011;1916;51.798;12.246;2023-06-10T01:15:34;9.77;;;5.30;;
3801;SDS011;1916;51.798;12.246;2023-06-10T01:17:51;6.20;;;5.17;;
3801;SDS011;1916;51.798;12.246;2023-06-10T01:20:00;10.37;;;6.10;;
3801;SDS011;1916;51.798;12.246;2023-06-10T01:22:04;7.50;;;5.40;;
3801;SDS011;1916;51.798;12.246;2023-06-10T01:24:07;7.57;;;5.17;;
3801;SDS011;1916;51.798;12.246;2023-06-10T01:26:10;8.60;;;5.37;;
3801;SDS011;1916;51.798;12.246;2023-06-10T01:28:21;9.77;;;6.20;;
3801;SDS011;1916;51.798;12.246;2023-06-10T01:30:32;7.20;;;5.57;;
3801;SDS011;1916;51.798;12.246;2023-06-10T01:32:47;8.83;;;6.00;;
3801;SDS011;1916;51.798;12.246;2023-06-10T01:34:50;10.50;;;5.63;;
3801;SDS011;1916;51.798;12.246;2023-06-10T01:36:53;9.83;;;5.67;;
3801;SDS011;1916;51.798;12.246;2023-06-10T01:38:56;7.87;;;5.73;;
3801;SDS011;1916;51.798;12.246;2023-06-10T01:40:58;12.93;;;7.07;;
3801;SDS011;1916;51.798;12.246;2023-06-10T01:43:01;9.90;;;5.87;;
3801;SDS011;1916;51.798;12.246;2023-06-10T01:45:03;8.97;;;5.97;;
3801;SDS011;1916;51.798;12.246;2023-06-10T01:47:06;9.77;;;5.90;;
3801;SDS011;1916;51.798;12.246;2023-06-10T01:49:08;9.77;;;6.53;;
3801;SDS011;1916;51.798;12.246;2023-06-10T01:51:10;8.13;;;6.00;;
3801;SDS011;1916;51.798;12.246;2023-06-10T01:53:13;14.17;;;6.20;;
3801;SDS011;1916;51.798;12.246;2023-06-10T01:55:15;8.67;;;5.97;;
3801;SDS011;1916;51.798;12.246;2023-06-10T01:57:17;11.30;;;7.30;;
3801;SDS011;1916;51.798;12.246;2023-06-10T01:59:19;13.77;;;7.77;;
3801;SDS011;1916;51.798;12.246;2023-06-10T02:01:22;10.00;;;6.20;;
3801;SDS011;1916;51.798;12.246;2023-06-10T02:03:24;10.93;;;6.57;;
3801;SDS011;1916;51.798;12.246;2023-06-10T02:05:26;10.20;;;6.43;;
3801;SDS011;1916;51.798;12.246;2023-06-10T02:07:29;16.93;;;6.00;;
3801;SDS011;1916;51.798;12.246;2023-06-10T02:09:31;14.10;;;6.83;;
3801;SDS011;1916;51.798;12.246;2023-06-10T02:11:36;11.63;;;7.10;;
3801;SDS011;1916;51.798;12.246;2023-06-10T02:13:38;9.57;;;6.63;;
3801;SDS011;1916;51.798;12.246;2023-06-10T02:15:40;13.33;;;6.67;;
3801;SDS011;1916;51.798;12.246;2023-06-10T02:17:42;9.17;;;6.60;;
3801;SDS011;1916;51.798;12.246;2023-06-10T02:19:46;9.13;;;6.13;;
3801;SDS011;1916;51.798;12.246;2023-06-10T02:21:55;8.63;;;6.60;;
3801;SDS011;1916;51.798;12.246;2023-06-10T02:23:57;13.20;;;7.67;;
3801;SDS011;1916;51.798;12.246;2023-06-10T02:26:00;17.10;;;6.77;;
3801;SDS011;1916;51.798;12.246;2023-06-10T02:28:03;11.73;;;6.60;;
3801;SDS011;1916;51.798;12.246;2023-06-10T02:30:06;10.00;;;7.57;;
3801;SDS011;1916;51.798;12.246;2023-06-10T02:32:11;10.60;;;6.90;;
3801;SDS011;1916;51.798;12.246;2023-06-10T02:34:15;12.47;;;7.57;;
3801;SDS011;1916;51.798;12.246;2023-06-10T02:36:18;9.60;;;6.30;;
3801;SDS011;1916;51.798;12.246;2023-06-10T02:38:23;16.80;;;8.10;;
3801;SDS011;1916;51.798;12.246;2023-06-10T02:40:25;12.33;;;7.30;;
3801;SDS011;1916;51.798;12.246;2023-06-10T02:42:27;13.10;;;7.50;;
3801;SDS011;1916;51.798;12.246;2023-06-10T02:44:29;12.90;;;7.60;;
3801;SDS011;1916;51.798;12.246;2023-06-10T02:46:31;9.23;;;6.73;;
3801;SDS011;1916;51.798;12.246;2023-06-10T02:48:40;14.63;;;7.57;;
3801;SDS011;1916;51.798;12.246;2023-06-10T02:50:43;14.90;;;7.40;;
3801;SDS011;1916;51.798;12.246;2023-06-10T02:52:58;12.73;;;7.67;;
3801;SDS011;1916;51.798;12.246;2023-06-10T02:55:00;12.70;;;7.70;;
3801;SDS011;1916;51.798;12.246;2023-06-10T02:57:02;12.23;;;7.20;;
3801;SDS011;1916;51.798;12.246;2023-06-10T02:59:04;14.63;;;8.97;;
3801;SDS011;1916;51.798;12.246;2023-06-10T03:01:09;13.93;;;8.23;;
3801;SDS011;1916;51.798;12.246;2023-06-10T03:03:20;14.30;;;7.33;;
3801;SDS011;1916;51.798;12.246;2023-06-10T03:05:34;10.10;;;7.33;;
3801;SDS011;1916;51.798;12.246;2023-06-10T03:07:38;11.73;;;7.60;;
3801;SDS011;1916;51.798;12.246;2023-06-10T03:09:41;12.40;;;7.63;;
3801;SDS011;1916;51.798;12.246;2023-06-10T03:11:47;13.53;;;9.00;;
3801;SDS011;1916;51.798;12.246;2023-06-10T03:13:49;8.70;;;6.90;;
3801;SDS011;1916;51.798;12.246;2023-06-10T03:15:53;16.93;;;7.77;;
3801;SDS011;1916;51.798;12.246;2023-06-10T03:17:57;11.33;;;7.40;;
3801;SDS011;1916;51.798;12.246;2023-06-10T03:19:59;14.00;;;8.47;;
3801;SDS011;1916;51.798;12.246;2023-06-10T03:22:08;11.07;;;8.10;;
3801;SDS011;1916;51.798;12.246;2023-06-10T03:24:14;12.70;;;7.23;;
3801;SDS011;1916;51.798;12.246;2023-06-10T03:26:17;14.27;;;7.97;;
3801;SDS011;1916;51.798;12.246;2023-06-10T03:28:24;9.37;;;8.00;;
3801;SDS011;1916;51.798;12.246;2023-06-10T03:30:29;9.97;;;7.07;;
3801;SDS011;1916;51.798;12.246;2023-06-10T03:32:31;11.40;;;7.50;;
3801;SDS011;1916;51.798;12.246;2023-06-10T03:34:34;14.87;;;8.03;;
3801;SDS011;1916;51.798;12.246;2023-06-10T03:36:38;11.33;;;7.17;;
3801;SDS011;1916;51.798;12.246;2023-06-10T03:38:43;9.20;;;7.33;;
3801;SDS011;1916;51.798;12.246;2023-06-10T03:40:45;10.20;;;6.70;;
3801;SDS011;1916;51.798;12.246;2023-06-10T03:42:47;15.60;;;8.30;;
3801;SDS011;1916;51.798;12.246;2023-06-10T03:44:52;18.87;;;7.40;;
3801;SDS011;1916;51.798;12.246;2023-06-10T03:46:55;10.30;;;7.30;;
3801;SDS011;1916;51.798;12.246;2023-06-10T03:48:59;15.83;;;7.57;;
3801;SDS011;1916;51.798;12.246;2023-06-10T03:51:06;11.37;;;7.60;;
3801;SDS011;1916;51.798;12.246;2023-06-10T03:53:08;12.90;;;7.33;;
3801;SDS011;1916;51.798;12.246;2023-06-10T03:55:12;11.63;;;7.70;;
3801;SDS011;1916;51.798;12.246;2023-06-10T03:57:18;12.20;;;7.63;;
3801;SDS011;1916;51.798;12.246;2023-06-10T03:59:20;13.60;;;7.30;;
3801;SDS011;1916;51.798;12.246;2023-06-10T04:01:22;12.73;;;7.83;;
3801;SDS011;1916;51.798;12.246;2023-06-10T04:03:26;12.43;;;7.63;;
3801;SDS011;1916;51.798;12.246;2023-06-10T04:05:29;15.83;;;7.43;;
3801;SDS011;1916;51.798;12.246;2023-06-10T04:07:32;8.50;;;6.93;;
3801;SDS011;1916;51.798;12.246;2023-06-10T04:09:34;12.80;;;7.13;;
3801;SDS011;1916;51.798;12.246;2023-06-10T04:11:37;11.20;;;7.43;;
3801;SDS011;1916;51.798;12.246;2023-06-10T04:13:40;9.90;;;6.50;;
3801;SDS011;1916;51.798;12.246;2023-06-10T04:15:42;14.20;;;7.40;;
3801;SDS011;1916;51.798;12.246;2023-06-10T04:17:49;14.77;;;7.30;;
3801;SDS011;1916;51.798;12.246;2023-06-10T04:19:55;14.17;;;8.60;;
3801;SDS011;1916;51.798;12.246;2023-06-10T04:22:00;12.23;;;7.23;;
3801;SDS011;1916;51.798;12.246;2023-06-10T04:24:03;12.30;;;6.90;;
3801;SDS011;1916;51.798;12.246;2023-06-10T04:26:06;13.80;;;7.80;;
3801;SDS011;1916;51.798;12.246;2023-06-10T04:28:09;10.70;;;6.80;;
3801;SDS011;1916;51.798;12.246;2023-06-10T04:30:12;9.73;;;6.37;;
3801;SDS011;1916;51.798;12.246;2023-06-10T04:32:15;11.27;;;7.10;;
3801;SDS011;1916;51.798;12.246;2023-06-10T04:34:17;15.63;;;7.90;;
3801;SDS011;1916;51.798;12.246;2023-06-10T04:36:20;14.43;;;6.60;;
3801;SDS011;1916;51.798;12.246;2023-06-10T04:38:22;14.03;;;8.23;;
3801;SDS011;1916;51.798;12.246;2023-06-10T04:40:24;13.03;;;7.30;;
3801;SDS011;1916;51.798;12.246;2023-06-10T04:42:27;14.77;;;6.37;;
3801;SDS011;1916;51.798;12.246;2023-06-10T04:44:29;12.43;;;6.70;;
3801;SDS011;1916;51.798;12.246;2023-06-10T04:46:32;12.80;;;7.37;;
3801;SDS011;1916;51.798;12.246;2023-06-10T04:48:35;11.40;;;7.67;;
3801;SDS011;1916;51.798;12.246;2023-06-10T04:50:38;11.53;;;6.50;;
3801;SDS011;1916;51.798;12.246;2023-06-10T04:52:41;11.10;;;7.50;;
3801;SDS011;1916;51.798;12.246;2023-06-10T04:54:44;12.40;;;6.87;;
3801;SDS011;1916;51.798;12.246;2023-06-10T04:56:46;17.80;;;7.63;;
3801;SDS011;1916;51.798;12.246;2023-06-10T04:58:48;11.57;;;6.90;;
3801;SDS011;1916;51.798;12.246;2023-06-10T05:00:50;12.30;;;7.17;;
3801;SDS011;1916;51.798;12.246;2023-06-10T05:02:52;13.77;;;7.23;;
3801;SDS011;1916;51.798;12.246;2023-06-10T05:04:55;10.20;;;6.60;;
3801;SDS011;1916;51.798;12.246;2023-06-10T05:06:58;12.50;;;6.80;;
3801;SDS011;1916;51.798;12.246;2023-06-10T05:09:00;11.47;;;6.80;;
3801;SDS011;1916;51.798;12.246;2023-06-10T05:11:02;10.30;;;6.57;;
3801;SDS011;1916;51.798;12.246;2023-06-10T05:13:04;10.33;;;6.20;;
3801;SDS011;1916;51.798;12.246;2023-06-10T05:15:07;13.93;;;7.10;;
3801;SDS011;1916;51.798;12.246;2023-06-10T05:17:10;15.93;;;6.70;;
3801;SDS011;1916;51.798;12.246;2023-06-10T05:19:12;7.60;;;6.10;;
3801;SDS011;1916;51.798;12.246;2023-06-10T05:21:14;14.03;;;6.97;;
3801;SDS011;1916;51.798;12.246;2023-06-10T05:23:17;14.43;;;7.40;;
3801;SDS011;1916;51.798;12.246;2023-06-10T05:25:19;13.03;;;6.37;;
3801;SDS011;1916;51.798;12.246;2023-06-10T05:27:21;11.67;;;6.73;;
3801;SDS011;1916;51.798;12.246;2023-06-10T05:29:24;13.13;;;6.83;;
3801;SDS011;1916;51.798;12.246;2023-06-10T05:31:26;14.13;;;7.17;;
3801;SDS011;1916;51.798;12.246;2023-06-10T05:33:28;13.10;;;7.00;;
3801;SDS011;1916;51.798;12.246;2023-06-10T05:35:30;10.73;;;7.40;;
3801;SDS011;1916;51.798;12.246;2023-06-10T05:37:33;13.97;;;7.43;;
3801;SDS011;1916;51.798;12.246;2023-06-10T05:39:36;11.87;;;7.73;;
3801;SDS011;1916;51.798;12.246;2023-06-10T05:41:41;18.43;;;7.00;;
3801;SDS011;1916;51.798;12.246;2023-06-10T05:43:43;12.63;;;7.30;;
3801;SDS011;1916;51.798;12.246;2023-06-10T05:45:45;9.03;;;6.77;;
3801;SDS011;1916;51.798;12.246;2023-06-10T05:47:47;10.30;;;6.80;;
3801;SDS011;1916;51.798;12.246;2023-06-10T05:49:50;10.97;;;6.70;;
3801;SDS011;1916;51.798;12.246;2023-06-10T05:51:53;12.27;;;6.77;;
3801;SDS011;1916;51.798;12.246;2023-06-10T05:53:55;14.33;;;7.30;;
3801;SDS011;1916;51.798;12.246;2023-06-10T05:55:57;12.30;;;5.80;;
3801;SDS011;1916;51.798;12.246;2023-06-10T05:58:00;13.97;;;6.17;;
3801;SDS011;1916;51.798;12.246;2023-06-10T06:00:02;11.13;;;6.97;;
3801;SDS011;1916;51.798;12.246;2023-06-10T06:02:13;11.63;;;7.07;;
3801;SDS011;1916;51.798;12.246;2023-06-10T06:04:15;12.13;;;7.20;;
3801;SDS011;1916;51.798;12.246;2023-06-10T06:06:18;12.73;;;7.10;;
3801;SDS011;1916;51.798;12.246;2023-06-10T06:08:22;10.83;;;6.40;;
3801;SDS011;1916;51.798;12.246;2023-06-10T06:10:24;8.50;;;6.80;;
3801;SDS011;1916;51.798;12.246;2023-06-10T06:12:26;15.10;;;6.27;;
3801;SDS011;1916;51.798;12.246;2023-06-10T06:14:30;13.93;;;7.20;;
3801;SDS011;1916;51.798;12.246;2023-06-10T06:16:33;9.13;;;5.80;;
3801;SDS011;1916;51.798;12.246;2023-06-10T06:18:36;9.90;;;5.90;;
3801;SDS011;1916;51.798;12.246;2023-06-10T06:20:38;12.20;;;6.93;;
3801;SDS011;1916;51.798;12.246;2023-06-10T06:22:40;13.03;;;6.57;;
3801;SDS011;1916;51.798;12.246;2023-06-10T06:24:42;10.17;;;7.10;;
3801;SDS011;1916;51.798;12.246;2023-06-10T06:26:44;15.23;;;7.43;;
3801;SDS011;1916;51.798;12.246;2023-06-10T06:28:47;10.17;;;6.10;;
3801;SDS011;1916;51.798;12.246;2023-06-10T06:30:49;9.83;;;6.63;;
3801;SDS011;1916;51.798;12.246;2023-06-10T06:32:51;13.13;;;6.67;;
3801;SDS011;1916;51.798;12.246;2023-06-10T06:34:53;11.40;;;7.13;;
3801;SDS011;1916;51.798;12.246;2023-06-10T06:36:56;15.13;;;7.30;;
3801;SDS011;1916;51.798;12.246;2023-06-10T06:38:59;14.93;;;6.40;;
3801;SDS011;1916;51.798;12.246;2023-06-10T06:41:02;9.50;;;6.50;;
3801;SDS011;1916;51.798;12.246;2023-06-10T06:43:06;15.10;;;7.33;;
3801;SDS011;1916;51.798;12.246;2023-06-10T06:45:24;10.10;;;7.07;;
3801;SDS011;1916;51.798;12.246;2023-06-10T06:47:26;13.43;;;6.70;;
3801;SDS011;1916;51.798;12.246;2023-06-10T06:49:28;10.43;;;6.90;;
3801;SDS011;1916;51.798;12.246;2023-06-10T06:51:31;12.83;;;7.10;;
3801;SDS011;1916;51.798;12.246;2023-06-10T06:53:33;13.10;;;8.07;;
3801;SDS011;1916;51.798;12.246;2023-06-10T06:55:36;11.77;;;6.53;;
3801;SDS011;1916;51.798;12.246;2023-06-10T06:57:38;11.27;;;7.10;;
3801;SDS011;1916;51.798;12.246;2023-06-10T06:59:41;10.40;;;6.60;;
3801;SDS011;1916;51.798;12.246;2023-06-10T07:01:43;14.33;;;7.63;;
3801;SDS011;1916;51.798;12.246;2023-06-10T07:03:45;9.70;;;6.70;;
3801;SDS011;1916;51.798;12.246;2023-06-10T07:05:47;9.70;;;7.40;;
3801;SDS011;1916;51.798;12.246;2023-06-10T07:07:49;10.83;;;6.80;;
3801;SDS011;1916;51.798;12.246;2023-06-10T07:09:56;11.13;;;6.10;;
3801;SDS011;1916;51.798;12.246;2023-06-10T07:11:58;15.33;;;6.80;;
3801;SDS011;1916;51.798;12.246;2023-06-10T07:14:00;10.20;;;6.67;;
3801;SDS011;1916;51.798;12.246;2023-06-10T07:16:02;14.57;;;7.37;;
3801;SDS011;1916;51.798;12.246;2023-06-10T07:18:05;7.97;;;7.00;;
3801;SDS011;1916;51.798;12.246;2023-06-10T07:20:07;10.57;;;7.20;;
3801;SDS011;1916;51.798;12.246;2023-06-10T07:22:10;9.00;;;7.73;;
3801;SDS011;1916;51.798;12.246;2023-06-10T07:24:12;10.40;;;7.40;;
3801;SDS011;1916;51.798;12.246;2023-06-10T07:26:14;8.37;;;6.53;;
3801;SDS011;1916;51.798;12.246;2023-06-10T07:28:16;10.00;;;6.63;;
3801;SDS011;1916;51.798;12.246;2023-06-10T07:30:19;11.07;;;7.40;;
3801;SDS011;1916;51.798;12.246;2023-06-10T07:32:21;10.20;;;7.17;;
3801;SDS011;1916;51.798;12.246;2023-06-10T07:34:25;8.80;;;6.97;;
3801;SDS011;1916;51.798;12.246;2023-06-10T07:36:27;9.03;;;7.47;;
3801;SDS011;1916;51.798;12.246;2023-06-10T07:38:31;16.60;;;8.57;;
3801;SDS011;1916;51.798;12.246;2023-06-10T07:40:33;12.90;;;8.30;;
3801;SDS011;1916;51.798;12.246;2023-06-10T07:42:36;12.40;;;8.37;;
3801;SDS011;1916;51.798;12.246;2023-06-10T07:44:38;9.13;;;7.07;;
3801;SDS011;1916;51.798;12.246;2023-06-10T07:46:40;14.70;;;7.30;;
3801;SDS011;1916;51.798;12.246;2023-06-10T07:48:42;9.57;;;7.03;;
3801;SDS011;1916;51.798;12.246;2023-06-10T07:50:44;10.93;;;7.90;;
3801;SDS011;1916;51.798;12.246;2023-06-10T07:52:47;10.60;;;7.50;;
3801;SDS011;1916;51.798;12.246;2023-06-10T07:54:49;13.53;;;7.90;;
3801;SDS011;1916;51.798;12.246;2023-06-10T07:56:51;13.00;;;7.93;;
3801;SDS011;1916;51.798;12.246;2023-06-10T07:58:55;12.70;;;7.73;;
3801;SDS011;1916;51.798;12.246;2023-06-10T08:00:57;10.20;;;8.20;;
3801;SDS011;1916;51.798;12.246;2023-06-10T08:02:59;9.30;;;8.40;;
3801;SDS011;1916;51.798;12.246;2023-06-10T08:05:01;9.63;;;8.50;;
3801;SDS011;1916;51.798;12.246;2023-06-10T08:07:04;12.60;;;8.33;;
3801;SDS011;1916;51.798;12.246;2023-06-10T08:09:06;12.07;;;8.80;;
3801;SDS011;1916;51.798;12.246;2023-06-10T08:11:08;12.50;;;8.40;;
3801;SDS011;1916;51.798;12.246;2023-06-10T08:13:10;12.23;;;8.17;;
3801;SDS011;1916;51.798;12.246;2023-06-10T08:15:12;14.30;;;8.63;;
3801;SDS011;1916;51.798;12.246;2023-06-10T08:17:14;9.33;;;8.00;;
3801;SDS011;1916;51.798;12.246;2023-06-10T08:19:17;10.23;;;7.77;;
3801;SDS011;1916;51.798;12.246;2023-06-10T08:21:19;14.20;;;9.53;;
3801;SDS011;1916;51.798;12.246;2023-06-10T08:23:21;11.13;;;9.87;;
3801;SDS011;1916;51.798;12.246;2023-06-10T08:25:23;13.37;;;9.30;;
3801;SDS011;1916;51.798;12.246;2023-06-10T08:27:25;11.50;;;9.30;;
3801;SDS011;1916;51.798;12.246;2023-06-10T08:29:27;16.73;;;9.10;;
3801;SDS011;1916;51.798;12.246;2023-06-10T08:31:30;11.43;;;9.30;;
3801;SDS011;1916;51.798;12.246;2023-06-10T08:33:33;12.10;;;9.80;;
3801;SDS011;1916;51.798;12.246;2023-06-10T08:35:35;10.83;;;8.53;;
3801;SDS011;1916;51.798;12.246;2023-06-10T08:37:37;11.37;;;9.83;;
3801;SDS011;1916;51.798;12.246;2023-06-10T08:39:39;14.93;;;8.40;;
3801;SDS011;1916;51.798;12.246;2023-06-10T08:41:43;11.67;;;8.47;;
3801;SDS011;1916;51.798;12.246;2023-06-10T08:43:48;12.33;;;8.63;;
3801;SDS011;1916;51.798;12.246;2023-06-10T08:45:57;12.27;;;9.07;;
3801;SDS011;1916;51.798;12.246;2023-06-10T08:48:03;13.70;;;8.43;;
3801;SDS011;1916;51.798;12.246;2023-06-10T08:50:09;9.23;;;8.23;;
3801;SDS011;1916;51.798;12.246;2023-06-10T08:52:15;11.80;;;8.17;;
3801;SDS011;1916;51.798;12.246;2023-06-10T08:54:20;15.33;;;8.33;;
3801;SDS011;1916;51.798;12.246;2023-06-10T08:56:24;14.03;;;8.40;;
3801;SDS011;1916;51.798;12.246;2023-06-10T08:58:27;12.13;;;8.23;;
3801;SDS011;1916;51.798;12.246;2023-06-10T09:00:30;11.63;;;8.50;;
3801;SDS011;1916;51.798;12.246;2023-06-10T09:02:33;10.83;;;9.60;;
3801;SDS011;1916;51.798;12.246;2023-06-10T09:04:37;10.23;;;8.50;;
3801;SDS011;1916;51.798;12.246;2023-06-10T09:06:40;11.03;;;9.07;;
3801;SDS011;1916;51.798;12.246;2023-06-10T09:08:42;8.53;;;7.70;;
3801;SDS011;1916;51.798;12.246;2023-06-10T09:10:44;10.40;;;8.60;;
3801;SDS011;1916;51.798;12.246;2023-06-10T09:12:47;16.10;;;9.30;;
3801;SDS011;1916;51.798;12.246;2023-06-10T09:14:49;9.77;;;8.77;;
3801;SDS011;1916;51.798;12.246;2023-06-10T09:16:52;9.83;;;8.30;;
3801;SDS011;1916;51.798;12.246;2023-06-10T09:18:58;9.60;;;8.47;;
3801;SDS011;1916;51.798;12.246;2023-06-10T09:21:01;14.97;;;7.73;;
3801;SDS011;1916;51.798;12.246;2023-06-10T09:23:03;9.73;;;7.90;;
3801;SDS011;1916;51.798;12.246;2023-06-10T09:25:06;8.10;;;7.30;;
3801;SDS011;1916;51.798;12.246;2023-06-10T09:27:12;13.17;;;7.70;;
3801;SDS011;1916;51.798;12.246;2023-06-10T09:29:14;8.47;;;7.57;;
3801;SDS011;1916;51.798;12.246;2023-06-10T09:31:16;12.20;;;8.47;;
3801;SDS011;1916;51.798;12.246;2023-06-10T09:33:24;8.80;;;7.60;;
3801;SDS011;1916;51.798;12.246;2023-06-10T09:35:29;11.33;;;8.70;;
3801;SDS011;1916;51.798;12.246;2023-06-10T09:37:32;9.57;;;7.00;;
3801;SDS011;1916;51.798;12.246;2023-06-10T09:39:35;7.63;;;6.73;;
3801;SDS011;1916;51.798;12.246;2023-06-10T09:41:40;12.20;;;7.90;;
3801;SDS011;1916;51.798;12.246;2023-06-10T09:43:43;9.43;;;7.30;;
3801;SDS011;1916;51.798;12.246;2023-06-10T09:45:48;8.23;;;7.33;;
3801;SDS011;1916;51.798;12.246;2023-06-10T09:47:54;10.47;;;8.07;;
3801;SDS011;1916;51.798;12.246;2023-06-10T09:49:57;12.60;;;7.77;;
3801;SDS011;1916;51.798;12.246;2023-06-10T09:51:59;13.03;;;8.27;;
3801;SDS011;1916;51.798;12.246;2023-06-10T09:54:02;9.37;;;8.20;;
3801;SDS011;1916;51.798;12.246;2023-06-10T09:56:05;12.43;;;8.40;;
3801;SDS011;1916;51.798;12.246;2023-06-10T09:58:11;10.30;;;7.87;;
3801;SDS011;1916;51.798;12.246;2023-06-10T10:00:13;12.03;;;7.20;;
3801;SDS011;1916;51.798;12.246;2023-06-10T10:02:16;12.77;;;7.90;;
3801;SDS011;1916;51.798;12.246;2023-06-10T10:04:23;10.33;;;6.80;;
3801;SDS011;1916;51.798;12.246;2023-06-10T10:06:26;8.20;;;6.53;;
3801;SDS011;1916;51.798;12.246;2023-06-10T10:08:30;13.23;;;7.60;;
3801;SDS011;1916;51.798;12.246;2023-06-10T10:10:33;8.20;;;6.80;;
3801;SDS011;1916;51.798;12.246;2023-06-10T10:12:36;8.93;;;6.80;;
3801;SDS011;1916;51.798;12.246;2023-06-10T10:14:41;7.80;;;7.00;;
3801;SDS011;1916;51.798;12.246;2023-06-10T10:16:47;8.67;;;7.20;;
3801;SDS011;1916;51.798;12.246;2023-06-10T10:18:53;13.30;;;7.30;;
3801;SDS011;1916;51.798;12.246;2023-06-10T10:20:57;8.70;;;7.23;;
3801;SDS011;1916;51.798;12.246;2023-06-10T10:23:03;9.23;;;7.10;;
3801;SDS011;1916;51.798;12.246;2023-06-10T10:25:10;8.87;;;7.03;;
3801;SDS011;1916;51.798;12.246;2023-06-10T10:27:17;7.80;;;6.97;;
3801;SDS011;1916;51.798;12.246;2023-06-10T10:29:31;10.53;;;7.00;;
3801;SDS011;1916;51.798;12.246;2023-06-10T10:31:37;8.67;;;7.00;;
3801;SDS011;1916;51.798;12.246;2023-06-10T10:36:00;8.27;;;6.97;;
3801;SDS011;1916;51.798;12.246;2023-06-10T10:38:02;10.10;;;7.57;;
3801;SDS011;1916;51.798;12.246;2023-06-10T10:40:05;8.73;;;6.93;;
3801;SDS011;1916;51.798;12.246;2023-06-10T10:42:08;7.47;;;6.70;;
3801;SDS011;1916;51.798;12.246;2023-06-10T10:44:12;8.10;;;7.13;;
3801;SDS011;1916;51.798;12.246;2023-06-10T10:46:16;8.10;;;6.83;;
3801;SDS011;1916;51.798;12.246;2023-06-10T10:48:19;10.40;;;6.90;;
3801;SDS011;1916;51.798;12.246;2023-06-10T10:50:21;9.13;;;7.03;;
3801;SDS011;1916;51.798;12.246;2023-06-10T10:52:25;8.40;;;7.47;;
3801;SDS011;1916;51.798;12.246;2023-06-10T10:54:33;7.83;;;7.03;;
3801;SDS011;1916;51.798;12.246;2023-06-10T10:56:36;10.10;;;7.17;;
3801;SDS011;1916;51.798;12.246;2023-06-10T10:58:39;7.83;;;7.00;;
3801;SDS011;1916;51.798;12.246;2023-06-10T11:00:44;9.50;;;7.70;;
3801;SDS011;1916;51.798;12.246;2023-06-10T11:02:47;10.13;;;7.07;;
3801;SDS011;1916;51.798;12.246;2023-06-10T11:04:51;13.37;;;7.47;;
3801;SDS011;1916;51.798;12.246;2023-06-10T11:06:54;11.77;;;7.13;;
3801;SDS011;1916;51.798;12.246;2023-06-10T11:08:56;10.37;;;7.50;;
3801;SDS011;1916;51.798;12.246;2023-06-10T11:11:23;7.93;;;6.30;;
3801;SDS011;1916;51.798;12.246;2023-06-10T11:13:27;11.23;;;7.17;;
3801;SDS011;1916;51.798;12.246;2023-06-10T11:15:30;8.27;;;6.37;;
3801;SDS011;1916;51.798;12.246;2023-06-10T11:17:32;9.70;;;7.20;;
3801;SDS011;1916;51.798;12.246;2023-06-10T11:19:35;11.47;;;7.20;;
3801;SDS011;1916;51.798;12.246;2023-06-10T11:22:00;8.70;;;7.30;;
3801;SDS011;1916;51.798;12.246;2023-06-10T11:24:11;7.03;;;6.27;;
3801;SDS011;1916;51.798;12.246;2023-06-10T11:28:33;9.47;;;7.20;;
3801;SDS011;1916;51.798;12.246;2023-06-10T11:30:35;8.17;;;6.73;;
3801;SDS011;1916;51.798;12.246;2023-06-10T11:32:38;9.10;;;6.83;;
3801;SDS011;1916;51.798;12.246;2023-06-10T11:34:41;8.63;;;7.33;;
3801;SDS011;1916;51.798;12.246;2023-06-10T11:36:43;8.67;;;7.27;;
3801;SDS011;1916;51.798;12.246;2023-06-10T11:38:47;8.00;;;7.20;;
3801;SDS011;1916;51.798;12.246;2023-06-10T11:40:53;10.00;;;7.27;;
3801;SDS011;1916;51.798;12.246;2023-06-10T11:42:55;6.97;;;6.33;;
3801;SDS011;1916;51.798;12.246;2023-06-10T11:44:58;11.70;;;7.67;;
3801;SDS011;1916;51.798;12.246;2023-06-10T11:47:01;7.90;;;7.10;;
3801;SDS011;1916;51.798;12.246;2023-06-10T11:49:04;11.67;;;7.30;;
3801;SDS011;1916;51.798;12.246;2023-06-10T11:51:07;11.37;;;7.40;;
3801;SDS011;1916;51.798;12.246;2023-06-10T11:53:09;8.23;;;7.33;;
3801;SDS011;1916;51.798;12.246;2023-06-10T11:55:12;7.97;;;7.17;;
3801;SDS011;1916;51.798;12.246;2023-06-10T11:57:15;8.00;;;7.20;;
3801;SDS011;1916;51.798;12.246;2023-06-10T11:59:17;8.23;;;7.10;;
3801;SDS011;1916;51.798;12.246;2023-06-10T12:01:26;10.33;;;7.20;;
3801;SDS011;1916;51.798;12.246;2023-06-10T12:03:37;9.67;;;7.27;;
3801;SDS011;1916;51.798;12.246;2023-06-10T12:05:40;10.60;;;7.60;;
3801;SDS011;1916;51.798;12.246;2023-06-10T12:07:42;8.20;;;7.50;;
3801;SDS011;1916;51.798;12.246;2023-06-10T12:09:44;14.20;;;7.30;;
3801;SDS011;1916;51.798;12.246;2023-06-10T12:11:50;9.13;;;7.10;;
3801;SDS011;1916;51.798;12.246;2023-06-10T12:13:54;9.07;;;7.80;;
3801;SDS011;1916;51.798;12.246;2023-06-10T12:16:05;7.97;;;7.13;;
3801;SDS011;1916;51.798;12.246;2023-06-10T12:18:08;10.73;;;8.17;;
3801;SDS011;1916;51.798;12.246;2023-06-10T12:20:25;10.10;;;8.10;;
3801;SDS011;1916;51.798;12.246;2023-06-10T12:22:39;8.83;;;7.70;;
3801;SDS011;1916;51.798;12.246;2023-06-10T12:24:43;10.87;;;8.40;;
3801;SDS011;1916;51.798;12.246;2023-06-10T12:26:47;14.03;;;7.33;;
3801;SDS011;1916;51.798;12.246;2023-06-10T12:28:50;12.10;;;7.50;;
3801;SDS011;1916;51.798;12.246;2023-06-10T12:31:08;10.37;;;8.50;;
3801;SDS011;1916;51.798;12.246;2023-06-10T12:33:20;11.80;;;7.73;;
3801;SDS011;1916;51.798;12.246;2023-06-10T12:35:23;11.50;;;7.77;;
3801;SDS011;1916;51.798;12.246;2023-06-10T12:37:27;8.97;;;8.00;;